sensor_id;sensor_type;location;lat;lon;timestamp;P1;durP1;ratioP1;P2;durP2;ratioP2
19653;SDS011;9975;48.046;7.804;2023-05-02T01:56:37;7.67;;;6.13;;
19653;SDS011;9975;48.046;7.804;2023-05-02T01:59:07;10.67;;;6.97;;
19653;SDS011;9975;48.046;7.804;2023-05-02T02:01:35;7.80;;;7.00;;
19653;SDS011;9975;48.046;7.804;2023-05-02T02:04:03;10.57;;;7.60;;
19653;SDS011;9975;48.046;7.804;2023-05-02T02:06:31;7.20;;;6.50;;
19653;SDS011;9975;48.046;7.804;2023-05-02T02:08:57;10.03;;;5.93;;
19653;SDS011;9975;48.046;7.804;2023-05-02T02:11:25;7.03;;;6.30;;
19653;SDS011;9975;48.046;7.804;2023-05-02T02:13:59;7.27;;;6.10;;
19653;SDS011;9975;48.046;7.804;2023-05-02T02:16:31;6.70;;;6.10;;
19653;SDS011;9975;48.046;7.804;2023-05-02T02:19:03;9.67;;;6.50;;
19653;SDS011;9975;48.046;7.804;2023-05-02T02:21:33;8.10;;;6.77;;
19653;SDS011;9975;48.046;7.804;2023-05-02T02:24:00;8.13;;;6.50;;
19653;SDS011;9975;48.046;7.804;2023-05-02T02:26:27;7.20;;;6.53;;
19653;SDS011;9975;48.046;7.804;2023-05-02T02:28:54;7.57;;;6.13;;
19653;SDS011;9975;48.046;7.804;2023-05-02T02:31:20;7.80;;;7.00;;
19653;SDS011;9975;48.046;7.804;2023-05-02T02:33:45;7.70;;;6.40;;
19653;SDS011;9975;48.046;7.804;2023-05-02T02:36:18;9.70;;;6.30;;
19653;SDS011;9975;48.046;7.804;2023-05-02T02:39:03;7.60;;;6.57;;
19653;SDS011;9975;48.046;7.804;2023-05-02T02:42:14;7.27;;;6.03;;
19653;SDS011;9975;48.046;7.804;2023-05-02T02:49:56;8.00;;;6.70;;
19653;SDS011;9975;48.046;7.804;2023-05-02T02:55:19;6.60;;;6.00;;
19653;SDS011;9975;48.046;7.804;2023-05-02T02:58:13;9.53;;;6.70;;
19653;SDS011;9975;48.046;7.804;2023-05-02T03:00:49;7.00;;;6.20;;
19653;SDS011;9975;48.046;7.804;2023-05-02T03:03:17;6.97;;;5.63;;
19653;SDS011;9975;48.046;7.804;2023-05-02T03:05:44;9.93;;;6.10;;
19653;SDS011;9975;48.046;7.804;2023-05-02T03:08:10;7.03;;;6.33;;
19653;SDS011;9975;48.046;7.804;2023-05-02T03:10:36;6.70;;;6.10;;
19653;SDS011;9975;48.046;7.804;2023-05-02T03:13:01;7.10;;;6.00;;
19653;SDS011;9975;48.046;7.804;2023-05-02T03:18:23;6.90;;;6.20;;
19653;SDS011;9975;48.046;7.804;2023-05-02T03:20:48;7.50;;;6.63;;
19653;SDS011;9975;48.046;7.804;2023-05-02T03:23:14;7.17;;;6.47;;
19653;SDS011;9975;48.046;7.804;2023-05-02T03:25:39;6.87;;;5.93;;
19653;SDS011;9975;48.046;7.804;2023-05-02T03:28:05;7.40;;;6.37;;
19653;SDS011;9975;48.046;7.804;2023-05-02T03:30:31;7.30;;;6.00;;
19653;SDS011;9975;48.046;7.804;2023-05-02T03:32:56;7.90;;;5.63;;
19653;SDS011;9975;48.046;7.804;2023-05-02T03:35:22;8.80;;;6.47;;
19653;SDS011;9975;48.046;7.804;2023-05-02T03:37:48;8.13;;;6.70;;
19653;SDS011;9975;48.046;7.804;2023-05-02T03:40:14;7.30;;;6.50;;
19653;SDS011;9975;48.046;7.804;2023-05-02T03:42:40;7.53;;;6.10;;
19653;SDS011;9975;48.046;7.804;2023-05-02T03:45:06;6.70;;;5.43;;
19653;SDS011;9975;48.046;7.804;2023-05-02T03:47:33;7.67;;;6.20;;
19653;SDS011;9975;48.046;7.804;2023-05-02T03:49:58;8.57;;;6.30;;
19653;SDS011;9975;48.046;7.804;2023-05-02T03:52:24;7.80;;;5.87;;
19653;SDS011;9975;48.046;7.804;2023-05-02T03:54:50;7.87;;;6.20;;
19653;SDS011;9975;48.046;7.804;2023-05-02T03:57:17;10.53;;;7.10;;
19653;SDS011;9975;48.046;7.804;2023-05-02T03:59:43;7.80;;;7.00;;
19653;SDS011;9975;48.046;7.804;2023-05-02T04:02:12;6.93;;;5.83;;
19653;SDS011;9975;48.046;7.804;2023-05-02T04:04:39;7.57;;;6.37;;
19653;SDS011;9975;48.046;7.804;2023-05-02T04:07:05;6.53;;;5.93;;
19653;SDS011;9975;48.046;7.804;2023-05-02T04:09:32;6.40;;;5.77;;
19653;SDS011;9975;48.046;7.804;2023-05-02T04:11:58;8.33;;;6.40;;
19653;SDS011;9975;48.046;7.804;2023-05-02T04:14:24;10.33;;;6.00;;
19653;SDS011;9975;48.046;7.804;2023-05-02T04:16:50;7.33;;;6.13;;
19653;SDS011;9975;48.046;7.804;2023-05-02T04:19:16;11.20;;;6.00;;
19653;SDS011;9975;48.046;7.804;2023-05-02T04:21:42;6.90;;;5.87;;
19653;SDS011;9975;48.046;7.804;2023-05-02T04:24:09;7.13;;;6.03;;
19653;SDS011;9975;48.046;7.804;2023-05-02T04:26:35;11.10;;;6.53;;
19653;SDS011;9975;48.046;7.804;2023-05-02T04:29:01;8.70;;;6.50;;
19653;SDS011;9975;48.046;7.804;2023-05-02T04:31:26;11.37;;;6.90;;
19653;SDS011;9975;48.046;7.804;2023-05-02T04:33:52;7.53;;;5.20;;
19653;SDS011;9975;48.046;7.804;2023-05-02T04:36:18;8.03;;;5.93;;
19653;SDS011;9975;48.046;7.804;2023-05-02T04:38:44;7.47;;;5.80;;
19653;SDS011;9975;48.046;7.804;2023-05-02T04:41:09;6.70;;;5.20;;
19653;SDS011;9975;48.046;7.804;2023-05-02T04:43:35;10.20;;;6.03;;
19653;SDS011;9975;48.046;7.804;2023-05-02T04:46:01;7.07;;;5.70;;
19653;SDS011;9975;48.046;7.804;2023-05-02T04:48:27;8.07;;;6.83;;
19653;SDS011;9975;48.046;7.804;2023-05-02T04:50:52;8.60;;;6.07;;
19653;SDS011;9975;48.046;7.804;2023-05-02T04:53:20;6.57;;;5.50;;
19653;SDS011;9975;48.046;7.804;2023-05-02T04:55:46;8.10;;;5.60;;
19653;SDS011;9975;48.046;7.804;2023-05-02T04:58:12;6.77;;;5.50;;
19653;SDS011;9975;48.046;7.804;2023-05-02T05:00:37;5.90;;;5.27;;
19653;SDS011;9975;48.046;7.804;2023-05-02T05:03:03;15.03;;;6.53;;
19653;SDS011;9975;48.046;7.804;2023-05-02T05:05:30;7.30;;;5.77;;
19653;SDS011;9975;48.046;7.804;2023-05-02T05:07:56;8.30;;;5.33;;
19653;SDS011;9975;48.046;7.804;2023-05-02T05:10:22;6.10;;;5.30;;
19653;SDS011;9975;48.046;7.804;2023-05-02T05:12:47;6.53;;;5.00;;
19653;SDS011;9975;48.046;7.804;2023-05-02T05:15:13;6.97;;;5.70;;
19653;SDS011;9975;48.046;7.804;2023-05-02T05:17:39;6.43;;;5.73;;
19653;SDS011;9975;48.046;7.804;2023-05-02T05:20:06;6.20;;;5.60;;
19653;SDS011;9975;48.046;7.804;2023-05-02T05:22:37;8.60;;;6.13;;
19653;SDS011;9975;48.046;7.804;2023-05-02T05:25:03;7.37;;;5.87;;
19653;SDS011;9975;48.046;7.804;2023-05-02T05:27:29;7.30;;;5.57;;
19653;SDS011;9975;48.046;7.804;2023-05-02T05:29:55;6.90;;;6.10;;
19653;SDS011;9975;48.046;7.804;2023-05-02T05:32:21;6.50;;;5.77;;
19653;SDS011;9975;48.046;7.804;2023-05-02T05:34:50;7.97;;;6.03;;
19653;SDS011;9975;48.046;7.804;2023-05-02T05:37:16;7.13;;;5.63;;
19653;SDS011;9975;48.046;7.804;2023-05-02T05:39:42;7.57;;;5.50;;
19653;SDS011;9975;48.046;7.804;2023-05-02T05:42:08;5.57;;;4.97;;
19653;SDS011;9975;48.046;7.804;2023-05-02T05:44:34;7.70;;;5.60;;
19653;SDS011;9975;48.046;7.804;2023-05-02T05:47:00;10.10;;;5.70;;
19653;SDS011;9975;48.046;7.804;2023-05-02T05:49:26;6.63;;;5.13;;
19653;SDS011;9975;48.046;7.804;2023-05-02T05:51:51;7.57;;;5.73;;
19653;SDS011;9975;48.046;7.804;2023-05-02T05:54:17;6.90;;;5.90;;
19653;SDS011;9975;48.046;7.804;2023-05-02T05:56:43;7.20;;;5.60;;
19653;SDS011;9975;48.046;7.804;2023-05-02T05:59:09;9.00;;;5.87;;
19653;SDS011;9975;48.046;7.804;2023-05-02T06:01:35;5.77;;;5.17;;
19653;SDS011;9975;48.046;7.804;2023-05-02T06:04:00;6.70;;;6.10;;
19653;SDS011;9975;48.046;7.804;2023-05-02T06:06:27;7.27;;;5.80;;
19653;SDS011;9975;48.046;7.804;2023-05-02T06:08:53;7.83;;;5.30;;
19653;SDS011;9975;48.046;7.804;2023-05-02T06:11:18;6.60;;;5.40;;
19653;SDS011;9975;48.046;7.804;2023-05-02T06:13:44;7.47;;;6.27;;
19653;SDS011;9975;48.046;7.804;2023-05-02T06:16:10;6.73;;;5.03;;
19653;SDS011;9975;48.046;7.804;2023-05-02T06:18:35;6.80;;;5.70;;
19653;SDS011;9975;48.046;7.804;2023-05-02T06:21:04;8.03;;;6.47;;
19653;SDS011;9975;48.046;7.804;2023-05-02T06:23:30;8.60;;;6.10;;
19653;SDS011;9975;48.046;7.804;2023-05-02T06:26:07;6.10;;;5.50;;
19653;SDS011;9975;48.046;7.804;2023-05-02T06:28:34;8.43;;;6.30;;
19653;SDS011;9975;48.046;7.804;2023-05-02T06:31:01;6.53;;;5.60;;
19653;SDS011;9975;48.046;7.804;2023-05-02T06:33:28;8.83;;;6.47;;
19653;SDS011;9975;48.046;7.804;2023-05-02T06:35:54;6.80;;;5.90;;
19653;SDS011;9975;48.046;7.804;2023-05-02T06:38:20;6.20;;;5.60;;
19653;SDS011;9975;48.046;7.804;2023-05-02T06:40:46;7.20;;;5.50;;
19653;SDS011;9975;48.046;7.804;2023-05-02T06:43:12;9.23;;;6.10;;
19653;SDS011;9975;48.046;7.804;2023-05-02T06:45:38;7.63;;;5.27;;
19653;SDS011;9975;48.046;7.804;2023-05-02T06:48:04;7.03;;;5.83;;
19653;SDS011;9975;48.046;7.804;2023-05-02T06:50:31;7.70;;;6.43;;
19653;SDS011;9975;48.046;7.804;2023-05-02T06:52:56;11.60;;;8.60;;
19653;SDS011;9975;48.046;7.804;2023-05-02T06:55:22;10.17;;;8.03;;
19653;SDS011;9975;48.046;7.804;2023-05-02T06:57:48;9.00;;;5.63;;
19653;SDS011;9975;48.046;7.804;2023-05-02T07:00:17;7.70;;;6.73;;
19653;SDS011;9975;48.046;7.804;2023-05-02T07:02:47;6.83;;;5.77;;
19653;SDS011;9975;48.046;7.804;2023-05-02T07:05:13;6.70;;;6.00;;
19653;SDS011;9975;48.046;7.804;2023-05-02T07:07:40;7.30;;;6.03;;
19653;SDS011;9975;48.046;7.804;2023-05-02T07:10:06;6.93;;;6.20;;
19653;SDS011;9975;48.046;7.804;2023-05-02T07:12:33;9.67;;;7.00;;
19653;SDS011;9975;48.046;7.804;2023-05-02T07:14:58;8.03;;;7.20;;
19653;SDS011;9975;48.046;7.804;2023-05-02T07:17:24;11.23;;;7.87;;
19653;SDS011;9975;48.046;7.804;2023-05-02T07:19:50;9.73;;;6.73;;
19653;SDS011;9975;48.046;7.804;2023-05-02T07:22:16;10.60;;;8.30;;
19653;SDS011;9975;48.046;7.804;2023-05-02T07:24:42;14.77;;;10.57;;
19653;SDS011;9975;48.046;7.804;2023-05-02T07:27:08;14.17;;;11.60;;
19653;SDS011;9975;48.046;7.804;2023-05-02T07:29:34;16.50;;;10.70;;
19653;SDS011;9975;48.046;7.804;2023-05-02T07:32:01;12.47;;;9.90;;
19653;SDS011;9975;48.046;7.804;2023-05-02T07:34:28;13.70;;;10.27;;
19653;SDS011;9975;48.046;7.804;2023-05-02T07:36:54;13.93;;;9.97;;
19653;SDS011;9975;48.046;7.804;2023-05-02T07:39:20;12.80;;;10.57;;
19653;SDS011;9975;48.046;7.804;2023-05-02T07:41:46;13.47;;;9.73;;
19653;SDS011;9975;48.046;7.804;2023-05-02T07:44:11;11.17;;;8.40;;
19653;SDS011;9975;48.046;7.804;2023-05-02T07:46:37;13.33;;;9.70;;
19653;SDS011;9975;48.046;7.804;2023-05-02T07:49:02;12.23;;;10.00;;
19653;SDS011;9975;48.046;7.804;2023-05-02T07:51:28;12.63;;;9.90;;
19653;SDS011;9975;48.046;7.804;2023-05-02T07:53:53;16.47;;;11.17;;
19653;SDS011;9975;48.046;7.804;2023-05-02T07:56:23;11.60;;;9.60;;
19653;SDS011;9975;48.046;7.804;2023-05-02T07:58:49;14.93;;;11.43;;
19653;SDS011;9975;48.046;7.804;2023-05-02T08:01:15;16.17;;;11.67;;
19653;SDS011;9975;48.046;7.804;2023-05-02T08:03:41;13.47;;;10.53;;
19653;SDS011;9975;48.046;7.804;2023-05-02T08:06:07;14.87;;;12.30;;
19653;SDS011;9975;48.046;7.804;2023-05-02T08:08:34;13.50;;;10.90;;
19653;SDS011;9975;48.046;7.804;2023-05-02T08:11:00;13.47;;;10.57;;
19653;SDS011;9975;48.046;7.804;2023-05-02T08:13:25;17.70;;;12.50;;
19653;SDS011;9975;48.046;7.804;2023-05-02T08:15:51;17.47;;;13.00;;
19653;SDS011;9975;48.046;7.804;2023-05-02T08:18:22;12.00;;;10.23;;
19653;SDS011;9975;48.046;7.804;2023-05-02T08:20:48;12.40;;;10.07;;
19653;SDS011;9975;48.046;7.804;2023-05-02T08:23:15;13.00;;;10.70;;
19653;SDS011;9975;48.046;7.804;2023-05-02T08:25:40;15.40;;;12.50;;
19653;SDS011;9975;48.046;7.804;2023-05-02T08:28:06;12.40;;;11.20;;
19653;SDS011;9975;48.046;7.804;2023-05-02T08:30:31;14.03;;;11.23;;
19653;SDS011;9975;48.046;7.804;2023-05-02T08:32:57;13.37;;;11.20;;
19653;SDS011;9975;48.046;7.804;2023-05-02T08:35:23;16.03;;;13.07;;
19653;SDS011;9975;48.046;7.804;2023-05-02T08:37:48;13.50;;;10.27;;
19653;SDS011;9975;48.046;7.804;2023-05-02T08:40:14;14.97;;;10.93;;
19653;SDS011;9975;48.046;7.804;2023-05-02T08:42:42;11.53;;;10.20;;
19653;SDS011;9975;48.046;7.804;2023-05-02T08:45:09;11.10;;;9.30;;
19653;SDS011;9975;48.046;7.804;2023-05-02T08:47:40;11.47;;;9.77;;
19653;SDS011;9975;48.046;7.804;2023-05-02T08:50:09;12.53;;;9.93;;
19653;SDS011;9975;48.046;7.804;2023-05-02T08:52:35;15.67;;;11.00;;
19653;SDS011;9975;48.046;7.804;2023-05-02T08:55:03;11.03;;;9.93;;
19653;SDS011;9975;48.046;7.804;2023-05-02T08:57:30;10.83;;;9.23;;
19653;SDS011;9975;48.046;7.804;2023-05-02T08:59:56;10.77;;;9.63;;
19653;SDS011;9975;48.046;7.804;2023-05-02T09:05:00;10.60;;;9.00;;
19653;SDS011;9975;48.046;7.804;2023-05-02T09:07:45;10.47;;;8.73;;
19653;SDS011;9975;48.046;7.804;2023-05-02T09:10:13;11.13;;;8.93;;
19653;SDS011;9975;48.046;7.804;2023-05-02T09:12:39;10.90;;;9.80;;
19653;SDS011;9975;48.046;7.804;2023-05-02T09:15:12;9.63;;;8.20;;
19653;SDS011;9975;48.046;7.804;2023-05-02T09:17:42;8.83;;;7.93;;
19653;SDS011;9975;48.046;7.804;2023-05-02T09:20:11;15.67;;;10.67;;
19653;SDS011;9975;48.046;7.804;2023-05-02T09:22:38;12.97;;;8.90;;
19653;SDS011;9975;48.046;7.804;2023-05-02T09:25:11;12.93;;;9.13;;
19653;SDS011;9975;48.046;7.804;2023-05-02T09:27:47;9.77;;;8.53;;
19653;SDS011;9975;48.046;7.804;2023-05-02T09:30:18;10.30;;;9.30;;
19653;SDS011;9975;48.046;7.804;2023-05-02T09:32:47;9.00;;;8.10;;
19653;SDS011;9975;48.046;7.804;2023-05-02T09:35:15;9.00;;;8.07;;
19653;SDS011;9975;48.046;7.804;2023-05-02T09:37:48;8.87;;;7.73;;
19653;SDS011;9975;48.046;7.804;2023-05-02T09:40:18;8.47;;;7.67;;
19653;SDS011;9975;48.046;7.804;2023-05-02T09:42:44;11.50;;;7.93;;
19653;SDS011;9975;48.046;7.804;2023-05-02T09:45:20;8.73;;;7.83;;
19653;SDS011;9975;48.046;7.804;2023-05-02T09:47:46;8.90;;;7.77;;
19653;SDS011;9975;48.046;7.804;2023-05-02T09:50:34;8.60;;;7.70;;
19653;SDS011;9975;48.046;7.804;2023-05-02T09:53:01;9.10;;;8.20;;
19653;SDS011;9975;48.046;7.804;2023-05-02T09:55:27;9.63;;;8.40;;
19653;SDS011;9975;48.046;7.804;2023-05-02T09:57:53;7.97;;;7.20;;
19653;SDS011;9975;48.046;7.804;2023-05-02T10:00:18;8.57;;;7.67;;
19653;SDS011;9975;48.046;7.804;2023-05-02T10:02:44;8.27;;;7.33;;
19653;SDS011;9975;48.046;7.804;2023-05-02T10:05:14;7.53;;;6.83;;
19653;SDS011;9975;48.046;7.804;2023-05-02T10:07:41;8.07;;;7.27;;
19653;SDS011;9975;48.046;7.804;2023-05-02T10:10:10;7.47;;;6.77;;
19653;SDS011;9975;48.046;7.804;2023-05-02T10:12:41;9.80;;;7.50;;
19653;SDS011;9975;48.046;7.804;2023-05-02T10:15:07;7.80;;;7.10;;
19653;SDS011;9975;48.046;7.804;2023-05-02T10:17:38;7.97;;;7.17;;
19653;SDS011;9975;48.046;7.804;2023-05-02T10:20:06;11.67;;;9.60;;
19653;SDS011;9975;48.046;7.804;2023-05-02T10:22:33;12.10;;;10.80;;
19653;SDS011;9975;48.046;7.804;2023-05-02T10:25:01;11.60;;;9.70;;
19653;SDS011;9975;48.046;7.804;2023-05-02T10:27:28;15.90;;;10.13;;
19653;SDS011;9975;48.046;7.804;2023-05-02T10:29:55;12.73;;;11.10;;
19653;SDS011;9975;48.046;7.804;2023-05-02T10:32:22;22.03;;;11.00;;
19653;SDS011;9975;48.046;7.804;2023-05-02T10:34:51;12.73;;;10.53;;
19653;SDS011;9975;48.046;7.804;2023-05-02T10:37:20;14.97;;;10.93;;
19653;SDS011;9975;48.046;7.804;2023-05-02T10:39:47;12.70;;;10.30;;
19653;SDS011;9975;48.046;7.804;2023-05-02T10:42:14;12.77;;;9.97;;
19653;SDS011;9975;48.046;7.804;2023-05-02T10:44:41;11.47;;;10.23;;
19653;SDS011;9975;48.046;7.804;2023-05-02T10:47:20;12.00;;;10.47;;
19653;SDS011;9975;48.046;7.804;2023-05-02T10:49:50;11.63;;;10.40;;
19653;SDS011;9975;48.046;7.804;2023-05-02T11:00:26;14.00;;;10.33;;
19653;SDS011;9975;48.046;7.804;2023-05-02T11:02:53;13.33;;;11.17;;
19653;SDS011;9975;48.046;7.804;2023-05-02T11:05:20;14.07;;;11.33;;
19653;SDS011;9975;48.046;7.804;2023-05-02T11:07:47;14.97;;;10.70;;
19653;SDS011;9975;48.046;7.804;2023-05-02T11:12:48;11.53;;;9.27;;
19653;SDS011;9975;48.046;7.804;2023-05-02T11:20:31;8.10;;;7.27;;
19653;SDS011;9975;48.046;7.804;2023-05-02T11:23:20;8.83;;;7.70;;
19653;SDS011;9975;48.046;7.804;2023-05-02T11:25:55;10.53;;;8.20;;
19653;SDS011;9975;48.046;7.804;2023-05-02T11:31:05;9.57;;;8.67;;
19653;SDS011;9975;48.046;7.804;2023-05-02T11:33:32;9.03;;;7.40;;
19653;SDS011;9975;48.046;7.804;2023-05-02T11:35:58;7.67;;;6.87;;
19653;SDS011;9975;48.046;7.804;2023-05-02T11:38:24;7.87;;;7.13;;
19653;SDS011;9975;48.046;7.804;2023-05-02T11:40:55;6.70;;;6.10;;
19653;SDS011;9975;48.046;7.804;2023-05-02T11:43:25;15.60;;;7.63;;
19653;SDS011;9975;48.046;7.804;2023-05-02T11:45:52;6.73;;;6.03;;
19653;SDS011;9975;48.046;7.804;2023-05-02T11:48:19;12.30;;;10.10;;
19653;SDS011;9975;48.046;7.804;2023-05-02T11:53:20;8.43;;;7.20;;
19653;SDS011;9975;48.046;7.804;2023-05-02T11:55:51;9.50;;;8.50;;
19653;SDS011;9975;48.046;7.804;2023-05-02T11:58:20;8.80;;;7.90;;
19653;SDS011;9975;48.046;7.804;2023-05-02T12:00:47;9.00;;;7.20;;
19653;SDS011;9975;48.046;7.804;2023-05-02T12:05:56;10.23;;;8.53;;
19653;SDS011;9975;48.046;7.804;2023-05-02T12:08:35;7.03;;;6.20;;
19653;SDS011;9975;48.046;7.804;2023-05-02T12:11:00;8.47;;;7.53;;
19653;SDS011;9975;48.046;7.804;2023-05-02T12:13:26;8.90;;;8.00;;
19653;SDS011;9975;48.046;7.804;2023-05-02T12:15:53;8.20;;;7.40;;
19653;SDS011;9975;48.046;7.804;2023-05-02T12:18:20;8.33;;;7.20;;
19653;SDS011;9975;48.046;7.804;2023-05-02T12:20:48;7.33;;;6.37;;
19653;SDS011;9975;48.046;7.804;2023-05-02T12:23:21;8.83;;;7.93;;
19653;SDS011;9975;48.046;7.804;2023-05-02T12:25:48;8.00;;;6.80;;
19653;SDS011;9975;48.046;7.804;2023-05-02T12:28:16;5.10;;;4.60;;
19653;SDS011;9975;48.046;7.804;2023-05-02T12:30:45;7.93;;;7.17;;
19653;SDS011;9975;48.046;7.804;2023-05-02T12:33:12;9.80;;;5.77;;
19653;SDS011;9975;48.046;7.804;2023-05-02T12:35:37;10.43;;;8.13;;
19653;SDS011;9975;48.046;7.804;2023-05-02T12:38:21;7.57;;;5.90;;
19653;SDS011;9975;48.046;7.804;2023-05-02T12:40:53;6.27;;;5.33;;
19653;SDS011;9975;48.046;7.804;2023-05-02T12:43:21;4.80;;;4.33;;
19653;SDS011;9975;48.046;7.804;2023-05-02T12:45:47;7.33;;;6.47;;
19653;SDS011;9975;48.046;7.804;2023-05-02T12:50:46;5.70;;;5.00;;
19653;SDS011;9975;48.046;7.804;2023-05-02T12:53:13;5.70;;;4.87;;
19653;SDS011;9975;48.046;7.804;2023-05-02T12:55:38;3.27;;;3.03;;
19653;SDS011;9975;48.046;7.804;2023-05-02T12:58:06;3.57;;;3.27;;
19653;SDS011;9975;48.046;7.804;2023-05-02T13:00:34;3.83;;;3.40;;
19653;SDS011;9975;48.046;7.804;2023-05-02T13:03:01;3.40;;;3.10;;
19653;SDS011;9975;48.046;7.804;2023-05-02T13:05:27;4.40;;;3.83;;
19653;SDS011;9975;48.046;7.804;2023-05-02T13:07:52;3.97;;;3.67;;
19653;SDS011;9975;48.046;7.804;2023-05-02T13:10:20;4.00;;;3.70;;
19653;SDS011;9975;48.046;7.804;2023-05-02T13:12:47;4.00;;;3.30;;
19653;SDS011;9975;48.046;7.804;2023-05-02T13:15:13;5.83;;;3.30;;
19653;SDS011;9975;48.046;7.804;2023-05-02T13:17:39;5.33;;;2.70;;
19653;SDS011;9975;48.046;7.804;2023-05-02T13:20:05;2.40;;;2.20;;
19653;SDS011;9975;48.046;7.804;2023-05-02T13:22:32;1.80;;;1.70;;
19653;SDS011;9975;48.046;7.804;2023-05-02T13:24:58;2.70;;;2.50;;
19653;SDS011;9975;48.046;7.804;2023-05-02T13:27:24;3.80;;;3.50;;
19653;SDS011;9975;48.046;7.804;2023-05-02T13:29:50;3.90;;;3.60;;
19653;SDS011;9975;48.046;7.804;2023-05-02T13:32:16;3.90;;;3.50;;
19653;SDS011;9975;48.046;7.804;2023-05-02T13:34:43;3.10;;;2.70;;
19653;SDS011;9975;48.046;7.804;2023-05-02T13:37:08;8.23;;;3.33;;
19653;SDS011;9975;48.046;7.804;2023-05-02T13:39:34;3.80;;;3.23;;
19653;SDS011;9975;48.046;7.804;2023-05-02T13:42:00;3.30;;;3.00;;
19653;SDS011;9975;48.046;7.804;2023-05-02T13:44:27;7.90;;;4.60;;
19653;SDS011;9975;48.046;7.804;2023-05-02T13:46:53;4.00;;;3.60;;
19653;SDS011;9975;48.046;7.804;2023-05-02T13:49:18;5.97;;;4.50;;
19653;SDS011;9975;48.046;7.804;2023-05-02T13:51:44;5.40;;;4.20;;
19653;SDS011;9975;48.046;7.804;2023-05-02T13:54:11;5.77;;;5.17;;
19653;SDS011;9975;48.046;7.804;2023-05-02T13:56:36;4.70;;;4.30;;
19653;SDS011;9975;48.046;7.804;2023-05-02T13:59:03;3.50;;;3.20;;
19653;SDS011;9975;48.046;7.804;2023-05-02T14:01:29;3.07;;;2.87;;
19653;SDS011;9975;48.046;7.804;2023-05-02T14:03:55;3.60;;;2.63;;
19653;SDS011;9975;48.046;7.804;2023-05-02T14:06:21;3.30;;;3.00;;
19653;SDS011;9975;48.046;7.804;2023-05-02T14:08:47;3.83;;;3.53;;
19653;SDS011;9975;48.046;7.804;2023-05-02T14:11:12;7.10;;;3.50;;
19653;SDS011;9975;48.046;7.804;2023-05-02T14:13:38;2.93;;;2.73;;
19653;SDS011;9975;48.046;7.804;2023-05-02T14:16:04;5.80;;;4.97;;
19653;SDS011;9975;48.046;7.804;2023-05-02T14:18:30;4.43;;;4.03;;
19653;SDS011;9975;48.046;7.804;2023-05-02T14:20:55;3.60;;;3.30;;
19653;SDS011;9975;48.046;7.804;2023-05-02T14:23:24;4.87;;;4.43;;
19653;SDS011;9975;48.046;7.804;2023-05-02T14:25:50;5.30;;;4.80;;
19653;SDS011;9975;48.046;7.804;2023-05-02T14:28:15;4.50;;;4.10;;
19653;SDS011;9975;48.046;7.804;2023-05-02T14:30:41;6.13;;;5.33;;
19653;SDS011;9975;48.046;7.804;2023-05-02T14:33:07;5.07;;;4.50;;
19653;SDS011;9975;48.046;7.804;2023-05-02T14:35:32;7.03;;;6.00;;
19653;SDS011;9975;48.046;7.804;2023-05-02T14:37:58;7.60;;;6.77;;
19653;SDS011;9975;48.046;7.804;2023-05-02T14:40:24;5.00;;;4.50;;
19653;SDS011;9975;48.046;7.804;2023-05-02T14:42:49;7.43;;;5.53;;
19653;SDS011;9975;48.046;7.804;2023-05-02T14:45:15;8.00;;;6.20;;
19653;SDS011;9975;48.046;7.804;2023-05-02T14:47:40;7.67;;;5.60;;
19653;SDS011;9975;48.046;7.804;2023-05-02T14:50:06;8.90;;;6.37;;
19653;SDS011;9975;48.046;7.804;2023-05-02T14:52:32;7.80;;;5.40;;
19653;SDS011;9975;48.046;7.804;2023-05-02T14:54:58;9.13;;;8.00;;
19653;SDS011;9975;48.046;7.804;2023-05-02T14:57:24;10.10;;;9.10;;
19653;SDS011;9975;48.046;7.804;2023-05-02T14:59:51;10.27;;;9.10;;
19653;SDS011;9975;48.046;7.804;2023-05-02T15:02:16;13.73;;;12.33;;
19653;SDS011;9975;48.046;7.804;2023-05-02T15:04:42;10.27;;;9.20;;
19653;SDS011;9975;48.046;7.804;2023-05-02T15:07:08;10.73;;;9.73;;
19653;SDS011;9975;48.046;7.804;2023-05-02T15:09:34;10.87;;;8.83;;
19653;SDS011;9975;48.046;7.804;2023-05-02T15:11:59;12.90;;;10.77;;
19653;SDS011;9975;48.046;7.804;2023-05-02T15:14:26;12.77;;;9.80;;
19653;SDS011;9975;48.046;7.804;2023-05-02T15:16:52;12.90;;;10.30;;
19653;SDS011;9975;48.046;7.804;2023-05-02T15:19:18;11.93;;;9.67;;
19653;SDS011;9975;48.046;7.804;2023-05-02T15:21:46;12.07;;;9.90;;
19653;SDS011;9975;48.046;7.804;2023-05-02T15:24:13;10.93;;;8.77;;
19653;SDS011;9975;48.046;7.804;2023-05-02T15:26:45;8.90;;;7.63;;
19653;SDS011;9975;48.046;7.804;2023-05-02T15:29:11;11.07;;;9.57;;
19653;SDS011;9975;48.046;7.804;2023-05-02T15:31:37;10.80;;;8.50;;
19653;SDS011;9975;48.046;7.804;2023-05-02T15:34:02;11.37;;;9.60;;
19653;SDS011;9975;48.046;7.804;2023-05-02T15:36:28;9.13;;;8.30;;
19653;SDS011;9975;48.046;7.804;2023-05-02T15:38:55;11.43;;;9.00;;
19653;SDS011;9975;48.046;7.804;2023-05-02T15:41:21;9.60;;;8.03;;
19653;SDS011;9975;48.046;7.804;2023-05-02T15:43:48;8.23;;;7.33;;
19653;SDS011;9975;48.046;7.804;2023-05-02T15:46:14;10.70;;;8.63;;
19653;SDS011;9975;48.046;7.804;2023-05-02T15:48:40;8.73;;;7.87;;
19653;SDS011;9975;48.046;7.804;2023-05-02T15:51:06;12.20;;;8.37;;
19653;SDS011;9975;48.046;7.804;2023-05-02T15:53:33;9.40;;;8.27;;
19653;SDS011;9975;48.046;7.804;2023-05-02T15:55:59;9.40;;;7.73;;
19653;SDS011;9975;48.046;7.804;2023-05-02T15:58:24;7.60;;;6.90;;
19653;SDS011;9975;48.046;7.804;2023-05-02T16:00:50;8.47;;;7.20;;
19653;SDS011;9975;48.046;7.804;2023-05-02T16:03:16;8.63;;;7.73;;
19653;SDS011;9975;48.046;7.804;2023-05-02T16:05:42;8.67;;;7.03;;
19653;SDS011;9975;48.046;7.804;2023-05-02T16:08:08;7.33;;;6.63;;
19653;SDS011;9975;48.046;7.804;2023-05-02T16:10:33;7.10;;;6.40;;
19653;SDS011;9975;48.046;7.804;2023-05-02T16:13:00;8.57;;;6.90;;
19653;SDS011;9975;48.046;7.804;2023-05-02T16:15:26;6.43;;;5.33;;
19653;SDS011;9975;48.046;7.804;2023-05-02T16:17:52;6.70;;;6.00;;
19653;SDS011;9975;48.046;7.804;2023-05-02T16:20:18;7.50;;;5.63;;
19653;SDS011;9975;48.046;7.804;2023-05-02T16:22:44;6.70;;;5.90;;
19653;SDS011;9975;48.046;7.804;2023-05-02T16:25:13;6.23;;;5.63;;
19653;SDS011;9975;48.046;7.804;2023-05-02T16:27:40;5.80;;;4.70;;
19653;SDS011;9975;48.046;7.804;2023-05-02T16:30:06;5.30;;;4.80;;
19653;SDS011;9975;48.046;7.804;2023-05-02T16:32:33;5.63;;;5.13;;
19653;SDS011;9975;48.046;7.804;2023-05-02T16:34:59;7.27;;;4.43;;
19653;SDS011;9975;48.046;7.804;2023-05-02T16:37:24;5.67;;;5.07;;
19653;SDS011;9975;48.046;7.804;2023-05-02T16:39:50;6.03;;;5.53;;
19653;SDS011;9975;48.046;7.804;2023-05-02T16:42:16;5.10;;;4.60;;
19653;SDS011;9975;48.046;7.804;2023-05-02T16:44:42;5.17;;;4.63;;
19653;SDS011;9975;48.046;7.804;2023-05-02T16:47:07;4.93;;;4.43;;
19653;SDS011;9975;48.046;7.804;2023-05-02T16:49:33;5.57;;;5.10;;
19653;SDS011;9975;48.046;7.804;2023-05-02T16:51:59;5.00;;;4.50;;
19653;SDS011;9975;48.046;7.804;2023-05-02T16:54:24;8.13;;;4.70;;
19653;SDS011;9975;48.046;7.804;2023-05-02T16:56:50;5.70;;;4.00;;
19653;SDS011;9975;48.046;7.804;2023-05-02T16:59:16;4.60;;;4.00;;
19653;SDS011;9975;48.046;7.804;2023-05-02T17:01:42;5.20;;;3.70;;
19653;SDS011;9975;48.046;7.804;2023-05-02T17:04:07;4.30;;;3.87;;
19653;SDS011;9975;48.046;7.804;2023-05-02T17:06:33;4.47;;;4.07;;
19653;SDS011;9975;48.046;7.804;2023-05-02T17:08:59;4.83;;;4.07;;
19653;SDS011;9975;48.046;7.804;2023-05-02T17:11:25;4.37;;;3.53;;
19653;SDS011;9975;48.046;7.804;2023-05-02T17:13:50;4.53;;;4.10;;
19653;SDS011;9975;48.046;7.804;2023-05-02T17:16:16;5.83;;;3.70;;
19653;SDS011;9975;48.046;7.804;2023-05-02T17:18:44;5.27;;;4.77;;
19653;SDS011;9975;48.046;7.804;2023-05-02T17:21:10;6.13;;;4.50;;
19653;SDS011;9975;48.046;7.804;2023-05-02T17:23:38;7.00;;;5.17;;
19653;SDS011;9975;48.046;7.804;2023-05-02T17:26:04;4.83;;;4.00;;
19653;SDS011;9975;48.046;7.804;2023-05-02T17:28:44;6.37;;;4.67;;
19653;SDS011;9975;48.046;7.804;2023-05-02T17:31:10;13.70;;;3.80;;